Time;durP1;ratioP1;P1;durP2;ratioP2;P2;SDS_P1;SDS_P2;PMS_P1;PMS_P2;Temp;Humidity;BMP_temperature;BMP_pressure;BME280_temperature;BME280_humidity;BME280_pressure;Samples;Min_cycle;Max_cycle;Signal;HPM_P1;HPM_P2
2022/09/13 00:00:06;;;;;;;492.60;445.67;;;;;;;19.46;56.46;99237.00;328016;29;2199;-78
2022/09/13 00:00:16;;;;;;;506.50;459.40;;;;;;;19.48;56.80;99238.56;327507;30;801;-77
2022/09/13 00:00:27;;;;;;;519.65;472.35;;;;;;;19.47;56.88;99230.72;329820;29;2010;-76
2022/09/13 00:00:38;;;;;;;533.77;486.17;;;;;;;19.44;56.80;99233.63;327442;30;2187;-76
2022/09/13 00:00:49;;;;;;;538.30;490.48;;;;;;;19.40;57.16;99233.03;325968;29;1697;-76
2022/09/13 00:01:00;;;;;;;539.00;491.20;;;;;;;19.39;57.09;99234.00;322925;30;1200;-77
2022/09/13 00:01:10;;;;;;;546.97;499.07;;;;;;;19.41;56.85;99240.03;325288;30;1600;-77
2022/09/13 00:01:21;;;;;;;549.03;501.13;;;;;;;19.41;56.92;99237.38;325438;30;1359;-76
2022/09/13 00:01:31;;;;;;;556.95;508.88;;;;;;;19.42;57.06;99233.75;326499;30;852;-76
2022/09/13 00:01:42;;;;;;;554.30;506.40;;;;;;;19.44;56.84;99242.44;329138;29;1406;-76
2022/09/13 00:01:52;;;;;;;557.90;509.97;;;;;;;19.45;56.49;99233.50;328062;30;1892;-76
2022/09/13 00:02:03;;;;;;;566.73;518.50;;;;;;;19.48;56.80;99238.56;324744;29;2364;-76
2022/09/13 00:02:13;;;;;;;572.97;524.53;;;;;;;19.46;56.73;99227.22;322881;30;1204;-76
2022/09/13 00:02:23;;;;;;;575.72;527.03;;;;;;;19.43;56.84;99235.44;322628;29;2543;-76
2022/09/13 00:02:34;;;;;;;580.17;531.47;;;;;;;19.41;56.88;99240.03;323643;30;2969;-76
2022/09/13 00:02:44;;;;;;;591.90;542.95;;;;;;;19.41;56.76;99236.53;321507;30;1498;-76
2022/09/13 00:02:55;;;;;;;587.83;539.03;;;;;;;19.40;57.12;99243.66;321225;30;2651;-76
2022/09/13 00:03:05;;;;;;;593.05;543.90;;;;;;;19.41;57.01;99240.03;320756;30;2306;-76
2022/09/13 00:03:16;;;;;;;596.57;547.40;;;;;;;19.42;56.90;99233.75;319147;30;1352;-76
2022/09/13 00:03:26;;;;;;;598.40;549.45;;;;;;;19.44;57.13;99225.66;314375;31;1518;-76
2022/09/13 00:03:36;;;;;;;597.93;549.07;;;;;;;19.43;57.02;99237.25;312474;31;1378;-76
2022/09/13 00:03:47;;;;;;;602.13;553.05;;;;;;;19.44;56.89;99234.47;317954;31;1030;-77
2022/09/13 00:03:57;;;;;;;607.43;558.10;;;;;;;19.44;56.59;99234.47;315699;31;2080;-77
2022/09/13 00:04:08;;;;;;;609.67;560.10;;;;;;;19.42;56.95;99241.72;312349;31;2865;-77
2022/09/13 00:04:18;;;;;;;606.25;556.85;;;;;;;19.30;57.19;99236.56;309687;31;2827;-76
2022/09/13 00:04:29;;;;;;;612.67;563.17;;;;;;;19.27;57.14;99232.34;307176;31;1198;-77
2022/09/13 00:04:39;;;;;;;615.15;565.75;;;;;;;19.31;57.42;99227.66;307211;31;3552;-77
2022/09/13 00:04:50;;;;;;;623.13;573.42;;;;;;;19.31;57.22;99231.13;307240;31;3693;-77
2022/09/13 00:05:00;;;;;;;627.93;578.10;;;;;;;19.30;57.04;99231.25;309166;31;1399;-77
2022/09/13 00:05:11;;;;;;;627.38;577.60;;;;;;;19.28;57.22;99234.03;311017;31;3681;-77
2022/09/13 00:05:21;;;;;;;629.03;579.30;;;;;;;19.27;56.87;99232.34;310231;31;3042;-77
2022/09/13 00:05:32;;;;;;;625.30;575.87;;;;;;;19.27;57.39;99230.53;309214;31;1215;-77
2022/09/13 00:05:42;;;;;;;625.40;576.20;;;;;;;19.30;57.32;99232.09;308287;31;2295;-77
2022/09/13 00:05:52;;;;;;;632.40;583.23;;;;;;;19.32;57.23;99235.47;307174;31;2425;-77
2022/09/13 00:06:07;;;;;;;643.28;593.72;;;;;;;19.34;57.31;99235.34;307613;31;2847;-77
2022/09/13 00:06:18;;;;;;;646.13;596.53;;;;;;;19.36;57.31;99236.91;303998;32;5600;-78
2022/09/13 00:06:29;;;;;;;640.60;591.03;;;;;;;19.37;57.19;99233.28;299826;32;881;-77
2022/09/13 00:06:39;;;;;;;646.93;597.20;;;;;;;19.37;57.35;99235.94;299804;32;4234;-76
2022/09/13 00:06:49;;;;;;;654.75;604.67;;;;;;;19.35;57.20;99237.88;297795;32;4577;-76
2022/09/13 00:07:00;;;;;;;667.83;617.37;;;;;;;19.37;56.99;99233.28;295624;33;804;-76
2022/09/13 00:07:10;;;;;;;673.20;622.55;;;;;;;19.39;57.18;99236.66;297316;32;5198;-76
2022/09/13 00:07:21;;;;;;;680.73;630.10;;;;;;;19.38;57.35;99240.28;297377;32;4842;-76
2022/09/13 00:07:31;;;;;;;691.40;640.60;;;;;;;19.39;57.29;99234.00;300031;32;1379;-76
2022/09/13 00:07:41;;;;;;;690.10;639.35;;;;;;;19.40;56.93;99233.03;296811;32;3802;-76
2022/09/13 00:07:52;;;;;;;692.07;641.30;;;;;;;19.41;56.88;99232.06;294691;33;2849;-76
2022/09/13 00:08:03;;;;;;;682.80;632.28;;;;;;;19.42;57.06;99236.41;294639;33;1021;-76
2022/09/13 00:08:13;;;;;;;693.72;642.88;;;;;;;19.42;56.94;99228.44;290591;33;4813;-77
2022/09/13 00:08:23;;;;;;;690.07;639.23;;;;;;;19.42;57.12;99235.56;292058;33;4281;-76
2022/09/13 00:08:34;;;;;;;693.97;642.80;;;;;;;19.41;57.12;99236.53;292586;33;5583;-77
2022/09/13 00:08:44;;;;;;;696.85;645.58;;;;;;;19.38;57.25;99236.78;290501;33;2933;-77
2022/09/13 00:08:55;;;;;;;706.90;655.27;;;;;;;19.38;56.92;99234.97;290872;33;6284;-77
2022/09/13 00:09:06;;;;;;;708.25;656.85;;;;;;;19.39;57.04;99234.00;290101;33;6069;-77
2022/09/13 00:09:16;;;;;;;705.20;653.90;;;;;;;19.40;56.96;99227.72;291139;33;919;-77
2022/09/13 00:09:27;;;;;;;703.92;652.65;;;;;;;19.41;56.80;99232.06;283362;34;6936;-77
2022/09/13 00:09:37;;;;;;;709.40;658.07;;;;;;;19.41;56.97;99229.41;281618;34;6796;-77
2022/09/13 00:09:48;;;;;;;711.60;660.20;;;;;;;19.42;57.08;99230.25;285286;34;5016;-77
2022/09/13 00:09:58;;;;;;;709.10;657.90;;;;;;;19.43;57.02;99235.44;285592;34;1406;-77
2022/09/13 00:10:09;;;;;;;702.90;651.90;;;;;;;19.41;57.22;99234.72;286232;34;4160;-77
2022/09/13 00:10:19;;;;;;;702.43;651.30;;;;;;;19.37;57.11;99238.59;285900;34;4806;-77
2022/09/13 00:10:31;;;;;;;707.78;656.35;;;;;;;19.35;57.34;99235.22;286856;34;1347;-77
2022/09/13 00:10:42;;;;;;;704.72;653.20;;;;;;;19.35;57.20;99229.06;284567;34;6089;-78
2022/09/13 00:10:53;;;;;;;700.85;649.55;;;;;;;19.36;57.31;99236.91;278998;34;7875;-78
2022/09/13 00:11:03;;;;;;;705.77;654.37;;;;;;;19.35;57.22;99234.38;274747;35;9225;-77
2022/09/13 00:11:16;;;;;;;702.50;651.13;;;;;;;19.36;57.47;99231.59;279722;35;1279;-77
2022/09/13 00:11:27;;;;;;;705.22;653.88;;;;;;;19.36;57.22;99231.59;275618;35;9143;-77
2022/09/13 00:11:38;;;;;;;705.50;654.13;;;;;;;19.36;57.20;99233.41;274189;35;10563;-77
2022/09/13 00:13:31;;;;;;;627.03;577.87;;;;;;;19.38;57.48;99229.66;2496155;27;20485;-77
2022/09/13 00:13:41;;;;;;;705.30;654.60;;;;;;;19.36;57.32;99231.59;352498;28;1294;-77
2022/09/13 00:13:52;;;;;;;701.10;650.35;;;;;;;19.36;57.30;99226.28;348231;28;1215;-77
2022/09/13 00:14:03;;;;;;;694.72;643.95;;;;;;;19.35;57.37;99229.06;346976;28;998;-77
2022/09/13 00:14:13;;;;;;;696.97;645.97;;;;;;;19.35;57.13;99224.59;347038;28;809;-77
2022/09/13 00:14:25;;;;;;;691.50;640.67;;;;;;;19.34;57.21;99222.91;345537;28;1353;-77
2022/09/13 00:14:35;;;;;;;689.60;638.88;;;;;;;19.34;56.76;99224.75;345187;28;1413;-77
2022/09/13 00:14:47;;;;;;;698.13;647.33;;;;;;;19.36;57.19;99225.44;346800;28;1177;-77
2022/09/13 00:14:57;;;;;;;698.70;647.88;;;;;;;19.36;57.01;99226.28;346558;28;1383;-77
2022/09/13 00:15:08;;;;;;;688.03;637.47;;;;;;;19.30;57.24;99232.09;346926;28;1171;-77
2022/09/13 00:15:18;;;;;;;684.13;633.67;;;;;;;19.28;57.15;99228.75;348224;28;1221;-77
2022/09/13 00:15:30;;;;;;;684.73;634.43;;;;;;;19.27;57.41;99232.34;345524;28;1455;-77
2022/09/13 00:15:47;;;;;;;685.47;635.25;;;;;;;19.23;57.76;99225.63;348584;28;1539;-77
2022/09/13 00:16:00;;;;;;;682.97;632.88;;;;;;;19.24;57.42;99222.00;349346;28;4940;-77
2022/09/13 00:16:12;;;;;;;696.80;646.30;;;;;;;19.22;57.69;99223.94;348984;28;5514;-78
2022/09/13 00:16:24;;;;;;;695.88;645.28;;;;;;;19.25;57.48;99223.69;348221;28;1119;-77
2022/09/13 00:16:34;;;;;;;693.10;642.38;;;;;;;19.25;57.80;99224.53;348300;28;1434;-77
2022/09/13 00:16:45;;;;;;;693.17;642.47;;;;;;;19.21;57.65;99227.56;347051;28;853;-77
2022/09/13 00:16:55;;;;;;;695.80;644.97;;;;;;;19.19;57.65;99222.38;347611;28;1173;-77
2022/09/13 00:17:06;;;;;;;695.60;644.83;;;;;;;19.20;57.46;99228.53;348412;28;1026;-77
2022/09/13 00:17:17;;;;;;;693.17;642.37;;;;;;;19.19;57.60;99219.72;350430;28;3867;-78
2022/09/13 00:17:27;;;;;;;693.05;642.25;;;;;;;19.20;57.53;99226.72;347329;28;5160;-78
2022/09/13 00:17:37;;;;;;;692.57;641.87;;;;;;;19.20;57.85;99225.88;346424;28;3338;-79
2022/09/13 00:17:48;;;;;;;693.85;643.00;;;;;;;19.22;57.39;99223.94;347541;28;1741;-77
2022/09/13 00:17:58;;;;;;;686.37;635.63;;;;;;;19.25;57.32;99223.69;345050;28;3004;-78
2022/09/13 00:18:09;;;;;;;690.40;639.58;;;;;;;19.26;57.46;99226.22;345466;28;1233;-78
2022/09/13 00:18:19;;;;;;;680.73;630.27;;;;;;;19.25;57.42;99221.88;344505;28;857;-78
2022/09/13 00:18:29;;;;;;;690.95;640.08;;;;;;;19.26;57.34;99225.38;345200;28;1457;-78
2022/09/13 00:18:40;;;;;;;695.97;645.03;;;;;;;19.25;57.35;99224.53;347069;28;1232;-78
2022/09/13 00:18:51;;;;;;;693.22;642.28;;;;;;;19.26;57.62;99225.38;346927;28;907;-78
2022/09/13 00:19:02;;;;;;;690.85;640.17;;;;;;;19.26;57.27;99225.38;345922;28;1236;-78
2022/09/13 00:19:12;;;;;;;693.97;643.20;;;;;;;19.27;57.63;99227.06;345510;28;1276;-78
2022/09/13 00:19:22;;;;;;;703.65;652.78;;;;;;;19.25;57.48;99226.34;341239;28;1421;-77
2022/09/13 00:19:33;;;;;;;699.33;648.47;;;;;;;19.22;57.57;99223.94;340389;28;1561;-77
2022/09/13 00:19:43;;;;;;;695.10;644.28;;;;;;;19.19;57.60;99224.19;336616;28;1224;-77
2022/09/13 00:19:54;;;;;;;696.33;645.43;;;;;;;19.20;57.59;99223.22;339386;28;1227;-77
2022/09/13 00:20:05;;;;;;;700.17;649.17;;;;;;;19.20;57.20;99231.19;337668;29;1365;-77
2022/09/13 00:20:15;;;;;;;698.30;647.30;;;;;;;19.16;57.24;99221.78;337917;29;886;-77
2022/09/13 00:20:26;;;;;;;694.43;643.50;;;;;;;19.15;57.47;99218.28;341661;28;808;-77
2022/09/13 00:20:37;;;;;;;688.83;638.08;;;;;;;19.16;57.53;99214.66;337762;29;1541;-77
2022/09/13 00:20:47;;;;;;;695.20;644.25;;;;;;;19.16;57.52;99221.78;337271;29;1368;-77
2022/09/13 00:21:12;;;;;;;697.50;646.60;;;;;;;19.12;57.45;99223.84;338889;29;1277;-77
2022/09/13 00:21:22;;;;;;;672.05;622.13;;;;;;;19.14;57.71;99229.88;334207;29;6375;-77
2022/09/13 00:21:33;;;;;;;675.70;625.60;;;;;;;19.14;57.51;99221.06;333962;29;1431;-77
2022/09/13 00:21:43;;;;;;;680.57;630.20;;;;;;;19.11;57.61;99216.84;337377;29;1276;-77
2022/09/13 00:21:53;;;;;;;687.73;637.30;;;;;;;19.10;57.30;99216.97;335783;29;1381;-77
2022/09/13 00:22:05;;;;;;;692.45;641.88;;;;;;;19.09;57.76;99223.25;332651;29;1213;-77
2022/09/13 00:22:15;;;;;;;698.40;647.58;;;;;;;19.12;57.80;99223.00;332775;29;823;-77
2022/09/13 00:22:26;;;;;;;698.22;647.33;;;;;;;19.13;57.73;99220.22;332971;29;1907;-77
2022/09/13 00:22:37;;;;;;;694.85;644.05;;;;;;;19.13;57.38;99220.22;332673;29;897;-77
2022/09/13 00:22:47;;;;;;;695.30;644.43;;;;;;;19.15;57.64;99218.28;332775;29;787;-77
2022/09/13 00:22:57;;;;;;;690.63;639.85;;;;;;;19.16;57.66;99219.97;333809;29;821;-77
2022/09/13 00:23:08;;;;;;;695.20;644.30;;;;;;;19.17;57.52;99218.16;332751;29;1192;-77
2022/09/13 00:23:19;;;;;;;697.60;646.53;;;;;;;19.17;57.26;99211.03;330083;29;1334;-77
2022/09/13 00:23:29;;;;;;;698.67;647.60;;;;;;;19.17;57.19;99220.81;328470;29;2074;-77
2022/09/13 00:23:42;;;;;;;699.38;648.35;;;;;;;19.18;57.34;99223.34;326713;29;1933;-77
2022/09/13 00:23:53;;;;;;;687.78;637.22;;;;;;;19.19;57.40;99218.88;328453;29;1940;-77
2022/09/13 00:24:04;;;;;;;683.53;633.15;;;;;;;19.19;57.50;99225.03;329917;29;1402;-77
2022/09/13 00:24:15;;;;;;;685.33;634.90;;;;;;;19.21;57.34;99222.25;327412;30;1146;-77
2022/09/13 00:24:25;;;;;;;700.90;649.92;;;;;;;19.19;57.22;99224.19;328323;29;2190;-77
2022/09/13 00:24:36;;;;;;;702.07;651.13;;;;;;;19.17;57.38;99221.66;328659;29;1078;-78
2022/09/13 00:24:46;;;;;;;696.20;645.35;;;;;;;19.17;57.64;99215.50;325900;30;1339;-78
2022/09/13 00:24:57;;;;;;;696.53;645.73;;;;;;;19.17;57.41;99223.47;326347;30;1356;-78
2022/09/13 00:25:07;;;;;;;690.60;639.93;;;;;;;19.17;57.28;99221.66;327115;30;1158;-78
2022/09/13 00:25:18;;;;;;;691.22;640.60;;;;;;;19.17;57.30;99221.66;327588;30;872;-78
2022/09/13 00:25:28;;;;;;;685.72;635.33;;;;;;;19.18;57.51;99222.50;328301;30;1769;-78
2022/09/13 00:25:39;;;;;;;688.03;637.63;;;;;;;19.19;57.41;99221.53;325850;30;1857;-78
2022/09/13 00:25:49;;;;;;;689.58;639.10;;;;;;;19.19;57.36;99219.72;321287;30;2381;-78
2022/09/13 00:26:07;;;;;;;691.07;640.43;;;;;;;19.21;57.61;99219.59;318351;31;755;-78
2022/09/13 00:26:22;;;;;;;689.95;639.42;;;;;;;19.18;57.32;99222.50;314753;31;1511;-78
2022/09/13 00:26:32;;;;;;;688.00;637.55;;;;;;;19.18;57.39;99223.34;309098;31;4942;-78
2022/09/13 00:26:44;;;;;;;690.35;639.67;;;;;;;19.21;57.34;99224.91;311462;31;2876;-77
2022/09/13 00:26:54;;;;;;;692.75;641.92;;;;;;;19.17;57.29;99215.50;309358;31;3098;-78
2022/09/13 00:27:04;;;;;;;693.40;642.47;;;;;;;19.18;57.55;99223.34;310054;31;2004;-78
2022/09/13 00:27:15;;;;;;;688.70;637.83;;;;;;;19.18;57.18;99226.00;309141;31;3445;-78
2022/09/13 00:27:25;;;;;;;690.50;639.70;;;;;;;19.12;57.60;99218.53;307877;31;1771;-77
2022/09/13 00:27:36;;;;;;;691.92;641.08;;;;;;;19.13;57.63;99214.91;306455;31;2804;-77
2022/09/13 00:27:47;;;;;;;697.00;646.03;;;;;;;19.13;57.28;99216.72;304914;32;817;-78
2022/09/13 00:27:57;;;;;;;687.63;636.97;;;;;;;19.15;57.53;99222.75;301268;32;2831;-78
2022/09/13 00:28:07;;;;;;;687.13;636.40;;;;;;;19.17;57.39;99216.34;301736;32;3399;-78
2022/09/13 00:28:18;;;;;;;682.88;632.05;;;;;;;19.15;57.46;99212.97;304095;32;1201;-78
2022/09/13 00:28:28;;;;;;;679.43;628.77;;;;;;;19.16;57.34;99219.13;303844;32;3971;-78
2022/09/13 00:28:39;;;;;;;680.40;629.88;;;;;;;19.17;57.60;99220.81;302609;32;3706;-78
2022/09/13 00:28:50;;;;;;;682.47;631.90;;;;;;;19.14;57.58;99221.91;300754;32;1189;-78
2022/09/13 00:29:01;;;;;;;691.17;640.38;;;;;;;19.16;57.29;99219.97;299086;33;1432;-78
2022/09/13 00:29:11;;;;;;;689.57;638.83;;;;;;;19.16;57.21;99219.97;300460;32;1683;-77
2022/09/13 00:29:22;;;;;;;699.70;648.65;;;;;;;19.15;57.26;99217.44;297005;33;2357;-77
2022/09/13 00:29:34;;;;;;;702.00;650.83;;;;;;;19.14;57.47;99215.75;293311;33;1280;-76
2022/09/13 00:29:45;;;;;;;703.95;652.60;;;;;;;19.13;57.12;99219.38;296168;32;2755;-77
2022/09/13 00:29:55;;;;;;;698.58;647.58;;;;;;;19.13;57.18;99219.38;296510;33;3680;-77
2022/09/13 00:30:06;;;;;;;700.90;649.95;;;;;;;19.14;57.23;99221.91;293018;33;4826;-77
2022/09/13 00:30:17;;;;;;;700.08;649.05;;;;;;;19.15;57.23;99212.16;289549;34;1325;-77
2022/09/13 00:30:27;;;;;;;700.30;649.33;;;;;;;19.17;57.29;99215.50;289039;33;5218;-77
2022/09/13 00:30:38;;;;;;;692.00;641.00;;;;;;;19.15;57.45;99218.28;288900;33;6550;-77
2022/09/13 00:30:51;;;;;;;691.88;640.83;;;;;;;19.14;57.10;99211.31;289598;34;859;-78
2022/09/13 00:31:02;;;;;;;688.05;636.83;;;;;;;19.14;57.34;99215.75;285036;34;1252;-78
2022/09/13 00:31:12;;;;;;;690.38;639.20;;;;;;;19.17;57.08;99213.69;287338;34;3817;-78
2022/09/13 00:31:24;;;;;;;689.50;638.60;;;;;;;19.19;57.19;99224.19;286908;34;2653;-77
2022/09/13 00:31:34;;;;;;;694.10;643.17;;;;;;;19.19;57.38;99221.53;286213;34;1154;-78
2022/09/13 00:31:44;;;;;;;690.67;639.80;;;;;;;19.18;57.19;99220.69;282200;34;3866;-77
2022/09/13 00:31:55;;;;;;;689.70;638.78;;;;;;;19.18;57.61;99222.50;280634;34;4454;-77
2022/09/13 00:32:05;;;;;;;693.60;642.60;;;;;;;19.15;57.46;99217.44;280278;34;5664;-77
2022/09/13 00:32:16;;;;;;;699.90;648.70;;;;;;;19.14;57.36;99215.75;280839;35;1418;-77
2022/09/13 00:32:27;;;;;;;698.50;647.35;;;;;;;19.15;57.41;99217.44;279691;35;6358;-77
2022/09/13 00:32:37;;;;;;;696.38;645.47;;;;;;;19.17;57.24;99220.81;276833;35;7716;-78
2022/09/13 00:32:48;;;;;;;690.92;640.20;;;;;;;19.17;57.24;99215.50;276936;35;848;-78
2022/09/13 00:32:58;;;;;;;698.33;647.40;;;;;;;19.16;57.08;99219.97;273369;35;9153;-77
2022/09/13 00:33:09;;;;;;;694.55;643.65;;;;;;;19.18;57.12;99214.53;272346;35;7173;-77
2022/09/13 00:33:19;;;;;;;697.33;646.33;;;;;;;19.19;57.30;99218.88;270846;36;1220;-77
2022/09/13 00:33:30;;;;;;;685.20;634.55;;;;;;;19.20;56.98;99220.56;268400;36;1380;-77
2022/09/13 00:33:40;;;;;;;706.28;655.10;;;;;;;19.21;57.11;99211.63;268819;36;5368;-77
2022/09/13 00:33:51;;;;;;;713.10;661.77;;;;;;;19.15;57.23;99212.16;267308;36;6231;-77
2022/09/13 00:34:01;;;;;;;727.92;676.28;;;;;;;19.15;57.15;99218.28;267654;36;1002;-77
2022/09/13 00:34:12;;;;;;;730.87;678.93;;;;;;;19.16;57.12;99217.31;262760;37;6948;-77
2022/09/13 00:34:22;;;;;;;738.42;686.42;;;;;;;19.17;57.22;99218.16;262207;36;8693;-77
2022/09/13 00:36:11;;;;;;;689.74;639.93;;;;;;;19.07;57.46;99212.78;2494372;27;20807;-77
2022/09/13 00:36:22;;;;;;;760.50;708.20;;;;;;;19.08;57.44;99213.59;350688;28;2871;-78
2022/09/13 00:36:32;;;;;;;743.38;691.45;;;;;;;19.09;57.30;99210.84;348338;28;805;-77
2022/09/13 00:36:42;;;;;;;739.80;688.03;;;;;;;19.09;57.18;99212.66;348218;28;848;-77
2022/09/13 00:36:53;;;;;;;735.90;684.25;;;;;;;19.08;57.52;99203.00;348272;28;1266;-77
2022/09/13 00:37:03;;;;;;;745.57;693.67;;;;;;;19.09;57.36;99216.13;347497;28;1669;-77
2022/09/13 00:37:14;;;;;;;752.20;700.10;;;;;;;19.10;57.22;99214.31;348348;28;813;-77
2022/09/13 00:37:24;;;;;;;758.37;706.00;;;;;;;19.07;57.33;99209.28;347032;28;864;-77
2022/09/13 00:37:35;;;;;;;761.08;708.72;;;;;;;19.07;57.05;99206.63;350874;28;1133;-77
2022/09/13 00:37:45;;;;;;;760.67;708.33;;;;;;;19.06;57.34;99215.56;346788;28;1218;-77
2022/09/13 00:37:58;;;;;;;765.63;713.17;;;;;;;19.07;57.53;99209.28;349670;28;1397;-77
2022/09/13 00:38:08;;;;;;;764.95;712.47;;;;;;;19.08;57.46;99210.97;346733;28;1460;-77
2022/09/13 00:38:19;;;;;;;761.20;708.90;;;;;;;19.08;57.15;99206.50;346362;28;1262;-76
2022/09/13 00:38:29;;;;;;;765.20;712.73;;;;;;;19.08;57.34;99211.81;345622;28;1233;-77
2022/09/13 00:38:40;;;;;;;771.88;719.20;;;;;;;19.08;57.59;99216.25;346619;28;1205;-77
2022/09/13 00:38:50;;;;;;;772.93;720.30;;;;;;;19.07;57.63;99215.41;348400;28;922;-77
2022/09/13 00:39:00;;;;;;;770.65;718.00;;;;;;;19.07;57.25;99211.94;348219;28;1237;-77
2022/09/13 00:39:11;;;;;;;768.40;715.67;;;;;;;19.07;57.59;99214.56;347673;28;1339;-77
2022/09/13 00:39:21;;;;;;;776.92;724.05;;;;;;;19.07;57.49;99214.56;347576;28;1271;-78
2022/09/13 00:39:32;;;;;;;780.93;728.00;;;;;;;19.08;57.50;99211.81;344227;28;920;-77
2022/09/13 00:39:42;;;;;;;793.03;739.93;;;;;;;19.09;57.23;99210.84;342628;28;1209;-77
2022/09/13 00:39:53;;;;;;;795.92;742.78;;;;;;;19.11;57.21;99216.00;344053;28;1088;-77
2022/09/13 00:40:04;;;;;;;798.47;745.33;;;;;;;19.11;57.42;99208.06;348661;28;1306;-77
2022/09/13 00:40:14;;;;;;;797.17;744.05;;;;;;;19.09;57.14;99213.47;346467;28;1353;-77
2022/09/13 00:40:25;;;;;;;795.05;741.90;;;;;;;19.11;57.30;99216.00;346017;28;1155;-77
2022/09/13 00:40:38;;;;;;;794.00;740.83;;;;;;;19.11;57.09;99216.00;344201;28;1681;-77
2022/09/13 00:40:48;;;;;;;790.28;737.25;;;;;;;19.11;57.17;99216.00;343962;28;1373;-77
2022/09/13 00:40:58;;;;;;;793.63;740.70;;;;;;;19.11;57.22;99210.72;345527;28;932;-77
2022/09/13 00:41:17;;;;;;;793.50;740.60;;;;;;;19.09;57.36;99210.84;344300;28;1295;-77
2022/09/13 00:41:27;;;;;;;788.72;736.00;;;;;;;19.09;57.61;99216.13;344188;28;935;-77
2022/09/13 00:41:38;;;;;;;792.13;739.30;;;;;;;19.08;57.39;99216.25;342728;28;1237;-77
2022/09/13 00:41:48;;;;;;;793.83;740.72;;;;;;;19.03;57.37;99208.72;345765;28;1359;-77
2022/09/13 00:41:58;;;;;;;798.70;745.53;;;;;;;19.01;57.59;99212.47;348316;28;958;-77
2022/09/13 00:42:12;;;;;;;800.88;747.63;;;;;;;18.97;57.43;99211.03;347748;28;1207;-77
2022/09/13 00:42:31;;;;;;;809.60;756.22;;;;;;;18.98;57.26;99210.91;345798;28;1420;-77
2022/09/13 00:42:41;;;;;;;817.88;764.40;;;;;;;19.00;57.23;99213.44;338842;29;954;-77
2022/09/13 00:42:52;;;;;;;812.10;758.83;;;;;;;18.91;57.81;99210.56;340741;28;1410;-77
2022/09/13 00:43:02;;;;;;;811.17;757.70;;;;;;;18.89;57.65;99211.66;339191;29;870;-77
2022/09/13 00:43:20;;;;;;;815.80;762.17;;;;;;;18.83;57.81;99210.34;341589;28;945;-77
2022/09/13 00:44:03;;;;;;;824.22;770.67;;;;;;;18.90;58.00;99215.97;338651;29;4869;-77
2022/09/13 00:44:51;;;;;;;816.70;763.33;;;;;;;18.94;57.86;99212.97;333613;29;924;-77
2022/09/13 00:45:07;;;;;;;822.83;769.83;;;;;;;18.85;57.88;99208.41;327301;29;5279;-77
2022/09/13 00:45:17;;;;;;;814.20;761.20;;;;;;;18.84;57.98;99214.66;333180;29;1317;-77
2022/09/13 00:45:28;;;;;;;826.03;772.25;;;;;;;18.85;57.95;99211.06;333164;29;1878;-77
2022/09/13 00:45:39;;;;;;;830.53;776.45;;;;;;;18.86;57.73;99212.72;331002;29;3191;-77
2022/09/13 00:45:49;;;;;;;826.50;772.70;;;;;;;18.89;58.01;99215.13;328951;29;987;-77
2022/09/13 00:45:59;;;;;;;825.22;771.42;;;;;;;18.88;57.82;99213.47;332360;29;804;-77
2022/09/13 00:46:17;;;;;;;832.33;778.23;;;;;;;18.85;57.86;99213.69;334753;29;1507;-77
2022/09/13 00:46:43;;;;;;;837.63;783.40;;;;;;;18.77;58.15;99210.81;326219;30;1561;-77
2022/09/13 00:46:53;;;;;;;837.40;783.63;;;;;;;18.74;58.19;99208.41;324604;30;2013;-77
2022/09/13 00:47:04;;;;;;;839.50;785.60;;;;;;;18.77;58.09;99210.81;322353;30;2027;-78
2022/09/13 00:47:16;;;;;;;841.40;787.20;;;;;;;18.81;58.08;99208.78;320282;30;1000;-76
2022/09/13 00:47:32;;;;;;;838.42;784.30;;;;;;;18.85;57.89;99211.06;321285;30;1423;-77
2022/09/13 00:47:59;;;;;;;839.90;785.92;;;;;;;18.93;57.99;99213.09;321547;30;856;-77
2022/09/13 00:48:20;;;;;;;826.40;772.95;;;;;;;18.94;57.66;99215.59;325299;30;1731;-77
2022/09/13 00:48:31;;;;;;;833.15;779.28;;;;;;;18.97;57.68;99218.97;316549;30;2343;-77
2022/09/13 00:48:41;;;;;;;833.03;779.10;;;;;;;18.99;57.64;99217.03;318098;31;1242;-77
2022/09/13 00:48:53;;;;;;;828.33;774.42;;;;;;;18.98;57.63;99216.19;316290;31;2503;-77
2022/09/13 00:49:13;;;;;;;830.17;776.22;;;;;;;18.94;57.73;99215.59;316056;30;2777;-77
2022/09/13 00:49:31;;;;;;;832.40;778.53;;;;;;;18.90;57.61;99208.88;316277;30;3166;-77
2022/09/13 00:49:41;;;;;;;823.90;770.30;;;;;;;18.89;57.87;99212.50;312983;31;1319;-78
2022/09/13 00:50:11;;;;;;;828.35;774.55;;;;;;;18.90;58.07;99213.34;315146;31;1342;-78
2022/09/13 00:50:34;;;;;;;824.63;771.35;;;;;;;18.90;58.14;99208.88;316593;30;2397;-76
2022/09/13 00:50:46;;;;;;;828.85;775.22;;;;;;;18.85;57.97;99208.41;311968;31;1473;-75
2022/09/13 00:50:57;;;;;;;831.17;777.35;;;;;;;18.82;58.04;99208.66;307786;32;5136;-75
2022/09/13 00:51:07;;;;;;;833.33;779.15;;;;;;;18.82;58.18;99206.00;309146;31;3315;-75
2022/09/13 00:51:18;;;;;;;834.30;780.03;;;;;;;18.83;57.93;99218.28;305035;32;3552;-75
2022/09/13 00:51:28;;;;;;;839.30;784.83;;;;;;;18.80;58.19;99207.94;302620;32;1229;-75
2022/09/13 00:51:39;;;;;;;832.93;778.67;;;;;;;18.80;58.37;99207.94;303571;32;3350;-75
2022/09/13 00:51:51;;;;;;;834.67;780.40;;;;;;;18.82;58.31;99213.09;307165;31;2211;-75
2022/09/13 00:52:07;;;;;;;841.08;786.72;;;;;;;18.80;58.44;99213.22;310125;31;2086;-75
2022/09/13 00:52:19;;;;;;;843.97;789.53;;;;;;;18.79;58.15;99211.53;307711;31;3686;-75
2022/09/13 00:52:29;;;;;;;836.22;782.08;;;;;;;18.79;58.27;99208.91;304628;32;828;-75
2022/09/13 00:52:40;;;;;;;842.47;788.17;;;;;;;18.82;58.26;99211.31;300728;32;3820;-77
2022/09/13 00:53:10;;;;;;;838.60;784.30;;;;;;;18.87;58.15;99213.56;299718;32;3988;-77
2022/09/13 00:53:23;;;;;;;839.78;785.95;;;;;;;18.87;58.09;99217.06;302957;32;5739;-77
2022/09/13 00:53:35;;;;;;;838.72;784.65;;;;;;;18.87;58.00;99213.56;300817;32;4063;-76
2022/09/13 00:53:48;;;;;;;834.08;780.05;;;;;;;18.91;58.35;99212.38;299910;32;4103;-76
2022/09/13 00:53:58;;;;;;;826.85;773.13;;;;;;;18.91;57.91;99212.38;299212;32;8369;-76
2022/09/13 00:54:09;;;;;;;831.03;777.07;;;;;;;18.92;58.16;99212.25;296484;32;3116;-77
2022/09/13 00:54:21;;;;;;;842.23;787.80;;;;;;;18.93;58.06;99208.63;293112;33;3299;-76
2022/09/13 00:54:37;;;;;;;845.45;790.90;;;;;;;18.96;58.38;99212.84;291169;33;4532;-77
2022/09/13 00:54:51;;;;;;;847.55;792.92;;;;;;;18.97;57.61;99208.38;293491;33;5325;-77
2022/09/13 00:55:21;;;;;;;849.75;795.28;;;;;;;18.93;58.09;99213.09;290439;33;6436;-77
2022/09/13 00:55:47;;;;;;;830.97;777.53;;;;;;;18.86;57.99;99218.03;285342;34;6996;-77
2022/09/13 00:56:33;;;;;;;824.47;771.08;;;;;;;18.92;57.96;99208.75;279869;35;5166;-77
2022/09/13 00:56:46;;;;;;;814.47;761.05;;;;;;;18.86;58.21;99212.72;273353;36;1492;-76
2022/09/13 00:56:57;;;;;;;827.28;773.40;;;;;;;18.87;57.76;99211.78;273464;36;1330;-76
2022/09/13 00:57:08;;;;;;;826.17;772.33;;;;;;;18.88;58.16;99212.63;272358;35;7293;-77
2022/09/13 00:57:18;;;;;;;820.55;767.00;;;;;;;18.87;58.34;99209.13;272001;36;9924;-77
2022/09/13 00:57:29;;;;;;;816.90;763.30;;;;;;;18.89;58.09;99207.19;267394;36;1299;-77
2022/09/13 00:57:39;;;;;;;828.35;774.28;;;;;;;18.91;58.22;99215.84;263733;36;9788;-76
2022/09/13 00:57:50;;;;;;;832.53;778.25;;;;;;;18.91;58.25;99213.22;265962;36;9703;-76
2022/09/13 01:00:10;;;;;;;762.31;710.64;;;;;;;18.89;58.48;99207.19;2482149;27;21039;-76
2022/09/13 01:00:21;;;;;;;824.70;771.03;;;;;;;18.93;58.30;99213.94;352248;28;5231;-76